Time;durP1;ratioP1;P1;durP2;ratioP2;P2;SDS_P1;SDS_P2;PMS_P1;PMS_P2;Temp;Humidity;BMP_temperature;BMP_pressure;BME280_temperature;BME280_humidity;BME280_pressure;Samples;Min_cycle;Max_cycle;Signal;HPM_P1;HPM_P2
2021/10/14 00:01:55;;;;;;;8.40;5.10;;;;;;;;;;5073831;28;20041;-88
2021/10/14 00:04:21;;;;;;;12.70;5.63;;;;;;;;;;5058463;28;20024;-88
2021/10/14 00:06:47;;;;;;;10.23;5.25;;;;;;;;;;5059782;28;20045;-87
2021/10/14 00:09:14;;;;;;;8.13;5.15;;;;;;;;;;5061976;28;20024;-87
2021/10/14 00:11:40;;;;;;;11.35;4.90;;;;;;;;;;5056622;28;20029;-87
2021/10/14 00:14:06;;;;;;;12.35;5.35;;;;;;;;;;5076720;28;20032;-86
2021/10/14 00:16:32;;;;;;;7.78;4.57;;;;;;;;;;5058514;28;20043;-88
2021/10/14 00:18:59;;;;;;;12.52;5.00;;;;;;;;;;5053614;28;20033;-87
2021/10/14 00:21:25;;;;;;;7.50;4.45;;;;;;;;;;5058885;28;20041;-86
2021/10/14 00:23:51;;;;;;;10.80;5.03;;;;;;;;;;5058291;28;20021;-86
2021/10/14 00:26:17;;;;;;;8.43;4.85;;;;;;;;;;5081010;28;20071;-88
2021/10/14 00:28:46;;;;;;;10.52;5.18;;;;;;;;;;5064826;28;20021;-88
2021/10/14 00:31:12;;;;;;;9.52;5.38;;;;;;;;;;5062522;28;20017;-87
2021/10/14 00:33:38;;;;;;;10.35;5.35;;;;;;;;;;5072858;28;20505;-88
2021/10/14 00:36:07;;;;;;;11.18;5.32;;;;;;;;;;5077057;28;20025;-85
2021/10/14 00:38:33;;;;;;;7.65;4.28;;;;;;;;;;5059826;28;20033;-85
2021/10/14 00:40:59;;;;;;;7.28;4.22;;;;;;;;;;5061120;28;20745;-85
2021/10/14 00:43:25;;;;;;;9.70;4.50;;;;;;;;;;5064724;28;20025;-86
2021/10/14 00:45:51;;;;;;;11.40;4.50;;;;;;;;;;5080043;28;20026;-89
2021/10/14 00:48:17;;;;;;;10.35;5.05;;;;;;;;;;5079584;28;20104;-84
2021/10/14 00:50:43;;;;;;;12.38;5.47;;;;;;;;;;5066617;28;20050;-85
2021/10/14 00:53:10;;;;;;;14.43;5.28;;;;;;;;;;5068495;28;20036;-87
2021/10/14 00:55:36;;;;;;;8.88;5.28;;;;;;;;;;5068042;28;20040;-87
2021/10/14 00:58:02;;;;;;;10.38;5.80;;;;;;;;;;5064174;28;20017;-87
2021/10/14 01:00:28;;;;;;;12.00;5.72;;;;;;;;;;5087327;28;20021;-89
2021/10/14 01:02:54;;;;;;;10.00;4.78;;;;;;;;;;5063557;28;20088;-83
2021/10/14 01:05:20;;;;;;;10.25;5.00;;;;;;;;;;5075542;28;20036;-87
2021/10/14 01:07:46;;;;;;;11.10;5.13;;;;;;;;;;5063621;28;20443;-85
2021/10/14 01:10:12;;;;;;;10.40;4.82;;;;;;;;;;5070363;28;20021;-84
2021/10/14 01:12:39;;;;;;;10.07;5.32;;;;;;;;;;5068552;28;20040;-87
2021/10/14 01:15:15;;;;;;;9.90;4.78;;;;;;;;;;5067763;28;20053;-87
2021/10/14 01:17:41;;;;;;;9.98;5.07;;;;;;;;;;5066247;28;20029;-85
2021/10/14 01:20:08;;;;;;;9.82;4.95;;;;;;;;;;5079480;28;20025;-87
2021/10/14 01:22:34;;;;;;;8.98;5.07;;;;;;;;;;5080627;28;20041;-89
2021/10/14 01:25:00;;;;;;;8.77;5.30;;;;;;;;;;5063549;28;20036;-87
2021/10/14 01:27:28;;;;;;;9.27;5.25;;;;;;;;;;5061381;28;20491;-88
2021/10/14 01:29:54;;;;;;;8.60;5.05;;;;;;;;;;5061933;28;20029;-87
2021/10/14 01:32:20;;;;;;;7.97;4.60;;;;;;;;;;5061919;28;20037;-83
2021/10/14 01:34:46;;;;;;;10.38;5.13;;;;;;;;;;5078352;28;20037;-89
2021/10/14 01:37:12;;;;;;;8.80;4.57;;;;;;;;;;5079628;28;20021;-86
2021/10/14 01:39:38;;;;;;;8.68;4.80;;;;;;;;;;5061178;28;20055;-87
2021/10/14 01:42:04;;;;;;;9.18;4.30;;;;;;;;;;5062729;28;20064;-87
2021/10/14 01:44:30;;;;;;;8.35;4.43;;;;;;;;;;5059090;28;20055;-86
2021/10/14 01:46:56;;;;;;;7.43;4.20;;;;;;;;;;5079739;28;20029;-86
2021/10/14 01:49:22;;;;;;;11.82;4.68;;;;;;;;;;5058706;28;20063;-85
2021/10/14 01:51:48;;;;;;;12.10;5.93;;;;;;;;;;5078302;28;20028;-84
2021/10/14 01:54:14;;;;;;;13.57;5.38;;;;;;;;;;5077403;28;20053;-84
2021/10/14 01:56:40;;;;;;;15.77;6.00;;;;;;;;;;5063444;28;20039;-86
2021/10/14 01:59:06;;;;;;;11.05;5.32;;;;;;;;;;5061921;28;20552;-87
2021/10/14 02:01:32;;;;;;;12.10;5.63;;;;;;;;;;5059654;28;20036;-88
2021/10/14 02:03:58;;;;;;;14.27;5.72;;;;;;;;;;5074555;28;20025;-87
2021/10/14 02:06:24;;;;;;;13.48;5.72;;;;;;;;;;5056953;28;20028;-84
2021/10/14 02:08:50;;;;;;;10.63;5.80;;;;;;;;;;5076967;28;20037;-88
2021/10/14 02:11:16;;;;;;;10.65;5.47;;;;;;;;;;5060580;28;20033;-87
2021/10/14 02:13:42;;;;;;;11.43;6.40;;;;;;;;;;5058169;28;20032;-85
2021/10/14 02:16:08;;;;;;;11.23;6.25;;;;;;;;;;5063620;28;20052;-88
2021/10/14 02:18:34;;;;;;;14.90;5.95;;;;;;;;;;5075040;28;20025;-85
2021/10/14 02:21:01;;;;;;;11.35;5.95;;;;;;;;;;5054828;28;20037;-87
2021/10/14 02:23:27;;;;;;;12.70;6.30;;;;;;;;;;5059536;28;20032;-87
2021/10/14 02:25:53;;;;;;;14.43;5.30;;;;;;;;;;5057153;28;20025;-88
2021/10/14 02:28:19;;;;;;;13.45;6.28;;;;;;;;;;5071819;28;20059;-88
2021/10/14 02:30:45;;;;;;;11.90;6.30;;;;;;;;;;5068683;28;20025;-87
2021/10/14 02:33:11;;;;;;;18.75;6.70;;;;;;;;;;5077630;28;20059;-85
2021/10/14 02:35:36;;;;;;;12.52;5.53;;;;;;;;;;5058312;28;20483;-87
2021/10/14 02:38:03;;;;;;;13.77;6.68;;;;;;;;;;5071355;28;20048;-86
2021/10/14 02:40:29;;;;;;;14.98;6.90;;;;;;;;;;5072174;28;20037;-86
2021/10/14 02:42:55;;;;;;;13.20;6.70;;;;;;;;;;5075840;28;20128;-86
2021/10/14 02:45:21;;;;;;;14.48;6.63;;;;;;;;;;5074285;28;20057;-85
2021/10/14 02:47:47;;;;;;;18.58;7.38;;;;;;;;;;5057295;28;20021;-86
2021/10/14 02:50:13;;;;;;;20.13;8.15;;;;;;;;;;5072512;28;20032;-85
2021/10/14 02:52:40;;;;;;;14.88;7.78;;;;;;;;;;5057322;28;20036;-85
2021/10/14 02:55:09;;;;;;;13.20;6.53;;;;;;;;;;5072773;28;20036;-87
2021/10/14 02:57:35;;;;;;;14.38;7.25;;;;;;;;;;5073986;28;20037;-86
2021/10/14 03:00:01;;;;;;;13.30;6.72;;;;;;;;;;5063723;28;20060;-86
2021/10/14 03:02:27;;;;;;;13.15;7.05;;;;;;;;;;5071698;28;20470;-85
2021/10/14 03:04:53;;;;;;;16.48;6.93;;;;;;;;;;5076710;28;20024;-85
2021/10/14 03:07:19;;;;;;;14.38;7.30;;;;;;;;;;5058280;28;20033;-84
2021/10/14 03:09:45;;;;;;;15.30;8.10;;;;;;;;;;5057004;28;20658;-86
2021/10/14 03:12:11;;;;;;;16.33;7.97;;;;;;;;;;5053191;28;20093;-86
2021/10/14 03:14:37;;;;;;;18.23;8.20;;;;;;;;;;5054807;28;20076;-86
2021/10/14 03:17:04;;;;;;;17.10;7.82;;;;;;;;;;5073650;28;20029;-82
2021/10/14 03:19:29;;;;;;;14.95;7.22;;;;;;;;;;5074944;28;20025;-88
2021/10/14 03:21:55;;;;;;;17.85;8.77;;;;;;;;;;5052785;28;20051;-86
2021/10/14 03:24:22;;;;;;;15.20;7.70;;;;;;;;;;5074709;28;20031;-86
2021/10/14 03:26:47;;;;;;;15.27;7.88;;;;;;;;;;5071412;28;20033;-84
2021/10/14 03:29:13;;;;;;;17.02;7.63;;;;;;;;;;5057507;28;20033;-86
2021/10/14 03:31:39;;;;;;;17.98;7.75;;;;;;;;;;5057009;28;20040;-87
2021/10/14 03:34:06;;;;;;;15.75;7.45;;;;;;;;;;5061428;28;20022;-87
2021/10/14 03:36:32;;;;;;;13.45;7.22;;;;;;;;;;5058448;28;20111;-86
2021/10/14 03:38:57;;;;;;;12.75;6.40;;;;;;;;;;5072324;28;20060;-87
2021/10/14 03:41:23;;;;;;;14.95;6.82;;;;;;;;;;5075970;28;20037;-86
2021/10/14 03:43:49;;;;;;;15.95;7.35;;;;;;;;;;5071663;28;20399;-87
2021/10/14 03:46:15;;;;;;;11.98;6.00;;;;;;;;;;5052678;28;20021;-83
2021/10/14 03:48:41;;;;;;;12.82;6.15;;;;;;;;;;5048318;28;20032;-85
2021/10/14 03:51:07;;;;;;;12.35;6.63;;;;;;;;;;5076580;28;20053;-87
2021/10/14 03:53:33;;;;;;;16.35;8.63;;;;;;;;;;5053283;28;20104;-85
2021/10/14 03:55:59;;;;;;;14.32;7.47;;;;;;;;;;5072382;28;20049;-86
2021/10/14 03:58:25;;;;;;;16.67;7.68;;;;;;;;;;5057616;28;20026;-86
2021/10/14 04:00:52;;;;;;;14.55;7.13;;;;;;;;;;5075818;28;20044;-86
2021/10/14 04:03:18;;;;;;;14.68;7.50;;;;;;;;;;5069734;28;20028;-89
2021/10/14 04:05:44;;;;;;;15.05;7.35;;;;;;;;;;5071550;28;20039;-86
2021/10/14 04:08:09;;;;;;;14.43;7.53;;;;;;;;;;5073987;28;20040;-86
2021/10/14 04:10:39;;;;;;;16.55;8.60;;;;;;;;;;5078842;28;20028;-87
2021/10/14 04:13:05;;;;;;;15.50;7.28;;;;;;;;;;5074761;28;20029;-84
2021/10/14 04:15:31;;;;;;;14.48;7.85;;;;;;;;;;5076910;28;20574;-87
2021/10/14 04:17:57;;;;;;;10.63;6.63;;;;;;;;;;5073889;28;20056;-87
2021/10/14 04:20:24;;;;;;;12.80;7.15;;;;;;;;;;5060379;28;20121;-84
2021/10/14 04:22:51;;;;;;;14.18;6.55;;;;;;;;;;5061869;28;20029;-86
2021/10/14 04:25:17;;;;;;;12.20;7.38;;;;;;;;;;5063508;28;20036;-85
2021/10/14 04:27:43;;;;;;;15.23;7.20;;;;;;;;;;5056994;28;20031;-88
2021/10/14 04:30:09;;;;;;;13.35;7.50;;;;;;;;;;5076301;28;20115;-86
2021/10/14 04:32:36;;;;;;;14.00;6.97;;;;;;;;;;5056163;28;20028;-87
2021/10/14 04:35:03;;;;;;;13.75;6.72;;;;;;;;;;5074565;28;20021;-87
2021/10/14 04:37:29;;;;;;;14.27;7.53;;;;;;;;;;5076053;28;20024;-89
2021/10/14 04:39:55;;;;;;;13.38;6.93;;;;;;;;;;5067086;28;20029;-85
2021/10/14 04:42:24;;;;;;;13.10;7.75;;;;;;;;;;5069180;28;20048;-86
2021/10/14 04:44:50;;;;;;;13.80;7.10;;;;;;;;;;5067258;28;20033;-84
2021/10/14 04:47:20;;;;;;;12.23;6.90;;;;;;;;;;5062797;28;20049;-83
2021/10/14 04:49:46;;;;;;;13.60;7.00;;;;;;;;;;5066279;28;20032;-86
2021/10/14 04:52:12;;;;;;;15.88;7.65;;;;;;;;;;5081461;28;20467;-84
2021/10/14 04:54:38;;;;;;;13.82;7.10;;;;;;;;;;5079706;28;20028;-86
2021/10/14 04:57:04;;;;;;;16.48;7.30;;;;;;;;;;5068288;28;20029;-84
2021/10/14 04:59:30;;;;;;;14.32;7.30;;;;;;;;;;5060385;28;20029;-86
2021/10/14 05:01:56;;;;;;;19.60;9.45;;;;;;;;;;5049998;28;20091;-84
2021/10/14 05:04:23;;;;;;;18.83;9.15;;;;;;;;;;5072038;28;20029;-86
2021/10/14 05:06:49;;;;;;;15.93;7.85;;;;;;;;;;5073689;28;20580;-87
2021/10/14 05:09:15;;;;;;;19.23;8.02;;;;;;;;;;5071124;28;20033;-88
2021/10/14 05:11:41;;;;;;;17.33;9.02;;;;;;;;;;5051635;28;20037;-85
2021/10/14 05:14:07;;;;;;;19.75;8.75;;;;;;;;;;5048307;28;20105;-84
2021/10/14 05:16:33;;;;;;;16.17;8.18;;;;;;;;;;5047280;28;21358;-85
2021/10/14 05:19:03;;;;;;;22.25;9.60;;;;;;;;;;5068894;28;20041;-83
2021/10/14 05:21:29;;;;;;;19.92;9.30;;;;;;;;;;5064083;28;20037;-85
2021/10/14 05:23:59;;;;;;;19.25;8.40;;;;;;;;;;5048169;28;20517;-86
2021/10/14 05:26:26;;;;;;;16.77;8.48;;;;;;;;;;5049797;28;20098;-86
2021/10/14 05:28:51;;;;;;;19.75;8.45;;;;;;;;;;5065821;28;20155;-85
2021/10/14 05:31:18;;;;;;;17.85;8.05;;;;;;;;;;5065078;28;20029;-85
2021/10/14 05:33:44;;;;;;;16.70;8.75;;;;;;;;;;5071781;28;20056;-85
2021/10/14 05:36:10;;;;;;;18.48;9.15;;;;;;;;;;5056005;28;20039;-87
2021/10/14 05:38:35;;;;;;;15.00;8.65;;;;;;;;;;5049714;28;20081;-86
2021/10/14 05:41:01;;;;;;;18.27;8.68;;;;;;;;;;5041091;28;20125;-86
2021/10/14 05:43:27;;;;;;;16.63;8.65;;;;;;;;;;5061100;28;20230;-87
2021/10/14 05:45:53;;;;;;;17.30;7.53;;;;;;;;;;5049150;28;20041;-88
2021/10/14 05:48:19;;;;;;;15.60;8.20;;;;;;;;;;5042310;28;20387;-86
2021/10/14 05:50:45;;;;;;;18.05;9.20;;;;;;;;;;5069835;28;20025;-85
2021/10/14 05:53:11;;;;;;;15.93;7.93;;;;;;;;;;5046647;28;20029;-85
2021/10/14 05:55:37;;;;;;;17.83;9.25;;;;;;;;;;5036817;28;20043;-88
2021/10/14 05:58:03;;;;;;;15.50;7.75;;;;;;;;;;5041592;28;20037;-87
2021/10/14 06:00:29;;;;;;;15.27;7.82;;;;;;;;;;5063012;28;20119;-81
2021/10/14 06:02:55;;;;;;;15.55;8.05;;;;;;;;;;5046680;28;20071;-83
2021/10/14 06:05:21;;;;;;;15.05;7.97;;;;;;;;;;5065376;28;20372;-87
2021/10/14 06:07:50;;;;;;;17.63;8.48;;;;;;;;;;5068750;28;20032;-85
2021/10/14 06:10:16;;;;;;;20.10;8.00;;;;;;;;;;5055061;28;20034;-85
2021/10/14 06:12:42;;;;;;;20.77;8.88;;;;;;;;;;5050201;28;20032;-86
2021/10/14 06:15:08;;;;;;;17.70;8.48;;;;;;;;;;5054268;28;20678;-87
2021/10/14 06:17:35;;;;;;;14.80;8.43;;;;;;;;;;5075172;28;20135;-85
2021/10/14 06:20:01;;;;;;;21.52;8.48;;;;;;;;;;5072131;28;20047;-88
2021/10/14 06:22:27;;;;;;;14.40;7.50;;;;;;;;;;5056085;28;20467;-86
2021/10/14 06:24:53;;;;;;;15.10;8.13;;;;;;;;;;5070981;28;20044;-85
2021/10/14 06:27:19;;;;;;;15.95;7.05;;;;;;;;;;5070153;28;20445;-88
2021/10/14 06:29:45;;;;;;;14.60;6.90;;;;;;;;;;5063358;28;20025;-84
2021/10/14 06:32:11;;;;;;;17.08;8.07;;;;;;;;;;5045669;28;20033;-88
2021/10/14 06:34:37;;;;;;;14.93;7.03;;;;;;;;;;5053912;28;20092;-84
2021/10/14 06:37:03;;;;;;;16.55;8.45;;;;;;;;;;5052794;28;20482;-85
2021/10/14 06:39:29;;;;;;;24.50;8.45;;;;;;;;;;5049814;28;20045;-84
2021/10/14 06:41:55;;;;;;;16.65;7.57;;;;;;;;;;5075191;28;20486;-85
2021/10/14 06:44:22;;;;;;;11.63;6.45;;;;;;;;;;5062446;28;20036;-85
2021/10/14 06:46:48;;;;;;;9.32;5.38;;;;;;;;;;5073964;28;20025;-88
2021/10/14 06:49:15;;;;;;;11.15;6.00;;;;;;;;;;5080627;28;20021;-88
2021/10/14 06:51:41;;;;;;;10.38;5.90;;;;;;;;;;5058420;28;20123;-86
2021/10/14 06:54:07;;;;;;;10.88;5.60;;;;;;;;;;5071041;28;20057;-83
2021/10/14 06:56:33;;;;;;;10.05;6.03;;;;;;;;;;5073301;28;20045;-88
2021/10/14 06:58:59;;;;;;;13.43;6.00;;;;;;;;;;5075863;28;20029;-88
2021/10/14 07:01:25;;;;;;;13.15;7.13;;;;;;;;;;5056121;28;20087;-84
2021/10/14 07:03:51;;;;;;;15.43;6.72;;;;;;;;;;5077940;28;20103;-84
2021/10/14 07:06:17;;;;;;;12.00;6.65;;;;;;;;;;5060483;28;20024;-88
2021/10/14 07:08:43;;;;;;;11.57;6.93;;;;;;;;;;5053557;28;20025;-88
2021/10/14 07:11:09;;;;;;;11.93;6.47;;;;;;;;;;5060517;28;20021;-87
2021/10/14 07:13:36;;;;;;;14.63;6.88;;;;;;;;;;5064037;28;20029;-87
2021/10/14 07:16:02;;;;;;;13.50;6.93;;;;;;;;;;5061103;28;20039;-89
2021/10/14 07:18:28;;;;;;;12.45;7.18;;;;;;;;;;5078590;28;20049;-88
2021/10/14 07:20:54;;;;;;;16.85;7.60;;;;;;;;;;5092277;28;20040;-86
2021/10/14 07:23:20;;;;;;;11.88;5.85;;;;;;;;;;5074358;28;20135;-87
2021/10/14 07:25:46;;;;;;;9.48;5.72;;;;;;;;;;5070997;28;20021;-86
2021/10/14 07:28:13;;;;;;;9.27;5.80;;;;;;;;;;5083669;28;20108;-88
2021/10/14 07:30:39;;;;;;;9.15;5.47;;;;;;;;;;5076315;28;20039;-87
2021/10/14 07:33:06;;;;;;;9.95;5.90;;;;;;;;;;5065641;28;20032;-88
2021/10/14 07:35:32;;;;;;;11.13;5.85;;;;;;;;;;5068676;28;20044;-88
2021/10/14 07:37:59;;;;;;;11.02;6.32;;;;;;;;;;5087231;28;20024;-87
2021/10/14 07:40:24;;;;;;;11.73;5.88;;;;;;;;;;5067282;28;20040;-89
2021/10/14 07:42:50;;;;;;;10.77;5.70;;;;;;;;;;5082850;28;20495;-86
2021/10/14 07:45:16;;;;;;;10.57;5.80;;;;;;;;;;5077813;28;20028;-84
2021/10/14 07:47:42;;;;;;;15.45;6.10;;;;;;;;;;5071764;28;20104;-87
2021/10/14 07:50:09;;;;;;;13.57;6.57;;;;;;;;;;5081211;28;20068;-87
2021/10/14 07:52:35;;;;;;;11.20;6.13;;;;;;;;;;5065181;28;20032;-86
2021/10/14 07:55:01;;;;;;;9.55;5.65;;;;;;;;;;5079318;28;20029;-87
2021/10/14 07:57:27;;;;;;;8.88;5.60;;;;;;;;;;5066759;28;20072;-88
2021/10/14 07:59:53;;;;;;;9.88;6.05;;;;;;;;;;5080470;28;20063;-89
2021/10/14 08:02:19;;;;;;;9.55;5.90;;;;;;;;;;5060155;28;20033;-87
2021/10/14 08:04:47;;;;;;;9.63;6.50;;;;;;;;;;5060933;28;20044;-87
2021/10/14 08:07:13;;;;;;;12.38;6.50;;;;;;;;;;5061051;28;20620;-85
2021/10/14 08:09:39;;;;;;;16.10;6.45;;;;;;;;;;5073465;28;20079;-90
2021/10/14 08:12:05;;;;;;;8.88;6.30;;;;;;;;;;5079255;28;20033;-86
2021/10/14 08:14:31;;;;;;;10.70;6.30;;;;;;;;;;5061706;28;20708;-89
2021/10/14 08:16:57;;;;;;;16.90;6.75;;;;;;;;;;5065093;28;20032;-89
2021/10/14 08:19:24;;;;;;;10.90;6.55;;;;;;;;;;5084163;28;20037;-87
2021/10/14 08:21:50;;;;;;;16.13;6.80;;;;;;;;;;5082564;28;20029;-89
2021/10/14 08:24:16;;;;;;;11.32;6.30;;;;;;;;;;5062627;28;20048;-88
2021/10/14 08:26:42;;;;;;;12.35;6.75;;;;;;;;;;5078921;28;20052;-88
2021/10/14 08:29:08;;;;;;;12.20;6.40;;;;;;;;;;5076588;28;20025;-89
2021/10/14 08:31:34;;;;;;;10.75;5.65;;;;;;;;;;5058871;28;20029;-90
2021/10/14 08:34:01;;;;;;;11.90;6.38;;;;;;;;;;5078541;28;20127;-88
2021/10/14 08:36:27;;;;;;;11.60;6.65;;;;;;;;;;5059583;28;20486;-89
2021/10/14 08:38:53;;;;;;;11.13;6.25;;;;;;;;;;5087454;28;20044;-89
2021/10/14 08:41:20;;;;;;;10.60;6.32;;;;;;;;;;5063526;28;20040;-89
2021/10/14 08:43:46;;;;;;;12.15;6.40;;;;;;;;;;5078295;28;20106;-85
2021/10/14 08:46:13;;;;;;;9.27;5.95;;;;;;;;;;5061252;28;20108;-87
2021/10/14 08:48:39;;;;;;;11.35;6.50;;;;;;;;;;5061975;28;20036;-88
2021/10/14 08:51:05;;;;;;;11.77;6.43;;;;;;;;;;5070685;28;20036;-88
2021/10/14 08:53:31;;;;;;;10.30;5.68;;;;;;;;;;5080934;28;20055;-86
2021/10/14 08:55:57;;;;;;;13.18;6.38;;;;;;;;;;5070706;28;20035;-87
2021/10/14 08:58:23;;;;;;;10.50;6.20;;;;;;;;;;5074979;28;20053;-89
2021/10/14 09:01:09;;;;;;;11.93;5.95;;;9.90;99.90;;;;;;5054449;28;20029;-88
2021/10/14 09:03:39;;;;;;;15.10;6.55;;;;;;;;;;5071641;28;20048;-89
2021/10/14 09:06:09;;;;;;;12.68;6.18;;;;;;;;;;5054936;28;20034;-85
2021/10/14 09:08:36;;;;;;;13.05;6.35;;;;;;;;;;5056977;28;20021;-85
2021/10/14 09:11:16;;;;;;;13.18;6.72;;;10.60;99.90;;;;;;5060292;28;20552;-88
2021/10/14 09:13:46;;;;;;;11.07;6.43;;;;;;;;;;5063438;28;20032;-90
2021/10/14 09:16:37;;;;;;;11.52;6.13;;;11.00;99.90;;;;;;5077068;28;20036;-85
2021/10/14 09:19:11;;;;;;;9.02;5.57;;;11.30;99.90;;;;;;5059006;28;20448;-86
2021/10/14 09:21:39;;;;;;;13.13;6.72;;;;;;;;;;5065131;28;20029;-88
2021/10/14 09:24:23;;;;;;;8.57;5.88;;;;;;;;;;5065764;28;20032;-88
2021/10/14 09:26:49;;;;;;;9.18;6.20;;;;;;;;;;5066711;28;20104;-88
2021/10/14 09:29:14;;;;;;;12.20;7.35;;;;;;;;;;5064622;28;20033;-87
2021/10/14 09:31:50;;;;;;;9.50;5.95;;;;;;;;;;5082463;28;20029;-87
2021/10/14 09:34:27;;;;;;;11.82;7.05;;;;;;;;;;5079966;28;20087;-85
2021/10/14 09:36:53;;;;;;;10.05;6.57;;;;;;;;;;5077330;28;20092;-87
2021/10/14 09:39:20;;;;;;;12.07;6.78;;;;;;;;;;5061720;28;20062;-86
2021/10/14 09:41:46;;;;;;;11.77;6.72;;;;;;;;;;5060319;28;20057;-88
2021/10/14 09:44:17;;;;;;;11.32;5.97;;;;;;;;;;5062495;28;20033;-89
2021/10/14 09:46:44;;;;;;;9.77;6.68;;;;;;;;;;5074165;28;20047;-90
2021/10/14 09:49:12;;;;;;;11.20;7.13;;;;;;;;;;5063649;28;20045;-87
2021/10/14 09:51:39;;;;;;;10.90;6.63;;;;;;;;;;5079701;28;20032;-86
2021/10/14 09:54:05;;;;;;;10.38;7.28;;;;;;;;;;5070718;28;20032;-86
2021/10/14 09:56:31;;;;;;;10.40;6.18;;;12.10;99.90;;;;;;5080308;28;20033;-87
2021/10/14 09:59:01;;;;;;;13.57;7.60;;;12.20;99.90;;;;;;5075534;28;20211;-86
2021/10/14 10:01:27;;;;;;;13.20;8.10;;;;;;;;;;5081252;28;20029;-84
2021/10/14 10:03:55;;;;;;;11.88;6.78;;;;;;;;;;5085487;28;20039;-84
2021/10/14 10:06:26;;;;;;;12.52;6.60;;;;;;;;;;5079732;28;20034;-87
2021/10/14 10:08:51;;;;;;;;;;;;;;;;;;5078247;28;20032;-87
2021/10/14 10:11:21;;;;;;;10.82;6.13;;;;;;;;;;5075858;28;19909;-88
2021/10/14 10:13:51;;;;;;;10.10;6.22;;;;;;;;;;5081638;28;20017;-87
2021/10/14 10:16:21;;;;;;;11.40;6.67;;;;;;;;;;5064647;28;20036;-85
2021/10/14 10:18:58;;;;;;;11.40;6.22;;;;;;;;;;5067771;28;20271;-87
2021/10/14 10:21:30;;;;;;;9.05;5.95;;;;;;;;;;5072764;28;20048;-86
2021/10/14 10:24:30;;;;;;;13.95;7.10;;;;;;;;;;5057514;28;20076;-88
2021/10/14 10:26:56;;;;;;;12.27;6.85;;;;;;;;;;5026660;28;20083;-89
2021/10/14 10:29:23;;;;;;;13.95;7.47;;;;;;;;;;5061941;28;20045;-86
2021/10/14 10:31:53;;;;;;;18.52;7.30;;;;;;;;;;5076453;28;20534;-87
2021/10/14 10:37:22;;;;;;;11.82;7.38;;;;;;;;;;5065127;28;20031;-85
2021/10/14 10:39:55;;;;;;;8.95;5.22;;;;;;;;;;5079882;28;20031;-89
2021/10/14 10:42:26;;;;;;;11.10;5.82;;;;;;;;;;5063084;28;20036;-86
2021/10/14 10:44:53;;;;;;;8.95;5.13;;;;;;;;;;5062139;28;20057;-89
2021/10/14 10:47:38;;;;;;;10.27;4.53;;;;;;;;;;5074879;28;20024;-86
2021/10/14 10:50:05;;;;;;;7.88;3.70;;;;;;;;;;5074564;28;20021;-87
